sensor_id;sensor_type;location;lat;lon;timestamp;P1;durP1;ratioP1;P2;durP2;ratioP2
51949;SDS011;37974;53.218;6.640;2023-03-04T00:00:07;23.40;;;2.50;;
51949;SDS011;37974;53.218;6.640;2023-03-04T00:02:33;20.33;;;2.88;;
51949;SDS011;37974;53.218;6.640;2023-03-04T00:04:59;20.90;;;2.65;;
51949;SDS011;37974;53.218;6.640;2023-03-04T00:07:25;18.70;;;2.17;;
51949;SDS011;37974;53.218;6.640;2023-03-04T00:09:50;16.73;;;2.90;;
51949;SDS011;37974;53.218;6.640;2023-03-04T00:12:16;22.42;;;2.85;;
51949;SDS011;37974;53.218;6.640;2023-03-04T00:14:42;15.38;;;2.33;;
51949;SDS011;37974;53.218;6.640;2023-03-04T00:17:07;22.05;;;2.88;;
51949;SDS011;37974;53.218;6.640;2023-03-04T00:19:33;18.55;;;2.35;;
51949;SDS011;37974;53.218;6.640;2023-03-04T00:22:00;18.90;;;3.33;;
51949;SDS011;37974;53.218;6.640;2023-03-04T00:24:26;22.05;;;2.50;;
51949;SDS011;37974;53.218;6.640;2023-03-04T00:26:52;21.85;;;2.50;;
51949;SDS011;37974;53.218;6.640;2023-03-04T00:29:17;18.48;;;2.67;;
51949;SDS011;37974;53.218;6.640;2023-03-04T00:31:43;17.52;;;2.53;;
51949;SDS011;37974;53.218;6.640;2023-03-04T00:34:09;25.27;;;3.22;;
51949;SDS011;37974;53.218;6.640;2023-03-04T00:36:34;18.95;;;2.30;;
51949;SDS011;37974;53.218;6.640;2023-03-04T00:39:00;16.05;;;2.42;;
51949;SDS011;37974;53.218;6.640;2023-03-04T00:41:26;18.58;;;2.60;;
51949;SDS011;37974;53.218;6.640;2023-03-04T00:43:51;17.55;;;2.90;;
51949;SDS011;37974;53.218;6.640;2023-03-04T00:46:17;17.25;;;2.70;;
51949;SDS011;37974;53.218;6.640;2023-03-04T00:48:43;17.25;;;3.40;;
51949;SDS011;37974;53.218;6.640;2023-03-04T00:51:08;23.77;;;3.03;;
51949;SDS011;37974;53.218;6.640;2023-03-04T00:53:34;24.23;;;3.03;;
51949;SDS011;37974;53.218;6.640;2023-03-04T00:56:00;24.08;;;2.15;;
51949;SDS011;37974;53.218;6.640;2023-03-04T00:58:26;16.23;;;2.65;;
51949;SDS011;37974;53.218;6.640;2023-03-04T01:00:51;14.98;;;2.72;;
51949;SDS011;37974;53.218;6.640;2023-03-04T01:03:17;14.13;;;2.15;;
51949;SDS011;37974;53.218;6.640;2023-03-04T01:05:43;19.40;;;2.30;;
51949;SDS011;37974;53.218;6.640;2023-03-04T01:08:09;17.55;;;2.50;;
51949;SDS011;37974;53.218;6.640;2023-03-04T01:10:34;17.17;;;2.75;;
51949;SDS011;37974;53.218;6.640;2023-03-04T01:13:00;22.02;;;2.42;;
51949;SDS011;37974;53.218;6.640;2023-03-04T01:15:26;23.42;;;2.63;;
51949;SDS011;37974;53.218;6.640;2023-03-04T01:17:51;18.40;;;2.47;;
51949;SDS011;37974;53.218;6.640;2023-03-04T01:20:17;20.10;;;3.13;;
51949;SDS011;37974;53.218;6.640;2023-03-04T01:22:43;25.55;;;3.10;;
51949;SDS011;37974;53.218;6.640;2023-03-04T01:25:09;20.02;;;2.38;;
51949;SDS011;37974;53.218;6.640;2023-03-04T01:27:34;19.23;;;2.88;;
51949;SDS011;37974;53.218;6.640;2023-03-04T01:30:00;24.60;;;2.97;;
51949;SDS011;37974;53.218;6.640;2023-03-04T01:32:26;30.95;;;3.13;;
51949;SDS011;37974;53.218;6.640;2023-03-04T01:34:52;15.13;;;3.17;;
51949;SDS011;37974;53.218;6.640;2023-03-04T01:37:17;18.30;;;2.85;;
51949;SDS011;37974;53.218;6.640;2023-03-04T01:39:43;15.40;;;2.63;;
51949;SDS011;37974;53.218;6.640;2023-03-04T01:42:12;16.25;;;2.42;;
51949;SDS011;37974;53.218;6.640;2023-03-04T01:44:43;17.40;;;2.17;;
51949;SDS011;37974;53.218;6.640;2023-03-04T01:47:10;14.80;;;2.10;;
51949;SDS011;37974;53.218;6.640;2023-03-04T01:49:36;15.32;;;2.13;;
51949;SDS011;37974;53.218;6.640;2023-03-04T01:52:02;21.02;;;2.72;;
51949;SDS011;37974;53.218;6.640;2023-03-04T01:54:28;17.50;;;2.58;;
51949;SDS011;37974;53.218;6.640;2023-03-04T01:56:53;17.73;;;2.33;;
51949;SDS011;37974;53.218;6.640;2023-03-04T01:59:21;20.02;;;3.00;;
51949;SDS011;37974;53.218;6.640;2023-03-04T02:01:49;20.85;;;3.40;;
51949;SDS011;37974;53.218;6.640;2023-03-04T02:04:21;23.45;;;3.38;;
51949;SDS011;37974;53.218;6.640;2023-03-04T02:06:49;19.35;;;3.13;;
51949;SDS011;37974;53.218;6.640;2023-03-04T02:09:16;17.80;;;2.60;;
51949;SDS011;37974;53.218;6.640;2023-03-04T02:11:43;22.98;;;3.03;;
51949;SDS011;37974;53.218;6.640;2023-03-04T02:14:11;19.58;;;3.15;;
51949;SDS011;37974;53.218;6.640;2023-03-04T02:16:37;19.13;;;2.47;;
51949;SDS011;37974;53.218;6.640;2023-03-04T02:19:04;18.75;;;2.65;;
51949;SDS011;37974;53.218;6.640;2023-03-04T02:21:33;24.85;;;3.08;;
51949;SDS011;37974;53.218;6.640;2023-03-04T02:26:33;18.67;;;2.80;;
51949;SDS011;37974;53.218;6.640;2023-03-04T02:28:59;19.67;;;2.47;;
51949;SDS011;37974;53.218;6.640;2023-03-04T02:33:58;21.63;;;2.53;;
51949;SDS011;37974;53.218;6.640;2023-03-04T02:36:26;22.15;;;2.60;;
51949;SDS011;37974;53.218;6.640;2023-03-04T02:38:53;23.17;;;3.08;;
51949;SDS011;37974;53.218;6.640;2023-03-04T02:41:21;13.85;;;2.85;;
51949;SDS011;37974;53.218;6.640;2023-03-04T02:43:52;18.33;;;1.98;;
51949;SDS011;37974;53.218;6.640;2023-03-04T02:46:19;14.70;;;2.10;;
51949;SDS011;37974;53.218;6.640;2023-03-04T02:48:45;15.98;;;2.30;;
51949;SDS011;37974;53.218;6.640;2023-03-04T02:51:11;18.00;;;2.40;;
51949;SDS011;37974;53.218;6.640;2023-03-04T02:53:36;19.25;;;2.08;;
51949;SDS011;37974;53.218;6.640;2023-03-04T02:56:02;15.00;;;1.90;;
51949;SDS011;37974;53.218;6.640;2023-03-04T02:58:28;18.05;;;2.30;;
51949;SDS011;37974;53.218;6.640;2023-03-04T03:00:54;23.17;;;2.38;;
51949;SDS011;37974;53.218;6.640;2023-03-04T03:03:20;16.40;;;2.75;;
51949;SDS011;37974;53.218;6.640;2023-03-04T03:05:46;14.60;;;2.25;;
51949;SDS011;37974;53.218;6.640;2023-03-04T03:08:12;22.05;;;2.53;;
51949;SDS011;37974;53.218;6.640;2023-03-04T03:10:37;21.52;;;3.42;;
51949;SDS011;37974;53.218;6.640;2023-03-04T03:13:03;18.55;;;2.22;;
51949;SDS011;37974;53.218;6.640;2023-03-04T03:15:29;17.63;;;2.55;;
51949;SDS011;37974;53.218;6.640;2023-03-04T03:17:54;16.40;;;2.25;;
51949;SDS011;37974;53.218;6.640;2023-03-04T03:20:20;19.05;;;1.80;;
51949;SDS011;37974;53.218;6.640;2023-03-04T03:22:46;21.20;;;3.60;;
51949;SDS011;37974;53.218;6.640;2023-03-04T03:25:12;20.13;;;3.28;;
51949;SDS011;37974;53.218;6.640;2023-03-04T03:27:39;22.40;;;2.70;;
51949;SDS011;37974;53.218;6.640;2023-03-04T03:30:06;16.88;;;2.17;;
51949;SDS011;37974;53.218;6.640;2023-03-04T03:32:33;12.68;;;2.20;;
51949;SDS011;37974;53.218;6.640;2023-03-04T03:34:59;17.17;;;2.22;;
51949;SDS011;37974;53.218;6.640;2023-03-04T03:37:26;16.92;;;2.05;;
51949;SDS011;37974;53.218;6.640;2023-03-04T03:39:51;14.38;;;1.98;;
51949;SDS011;37974;53.218;6.640;2023-03-04T03:42:17;9.80;;;1.83;;
51949;SDS011;37974;53.218;6.640;2023-03-04T03:44:43;16.20;;;1.92;;
51949;SDS011;37974;53.218;6.640;2023-03-04T03:47:08;13.75;;;2.55;;
51949;SDS011;37974;53.218;6.640;2023-03-04T03:49:34;16.70;;;1.98;;
51949;SDS011;37974;53.218;6.640;2023-03-04T03:52:00;15.85;;;2.30;;
51949;SDS011;37974;53.218;6.640;2023-03-04T03:54:26;19.65;;;2.33;;
51949;SDS011;37974;53.218;6.640;2023-03-04T03:56:51;19.35;;;2.03;;
51949;SDS011;37974;53.218;6.640;2023-03-04T03:59:17;23.83;;;2.30;;
51949;SDS011;37974;53.218;6.640;2023-03-04T04:01:43;15.38;;;1.88;;
51949;SDS011;37974;53.218;6.640;2023-03-04T04:04:08;17.27;;;1.60;;
51949;SDS011;37974;53.218;6.640;2023-03-04T04:06:34;17.70;;;1.90;;
51949;SDS011;37974;53.218;6.640;2023-03-04T04:09:00;19.98;;;1.73;;
51949;SDS011;37974;53.218;6.640;2023-03-04T04:11:25;17.33;;;3.17;;
51949;SDS011;37974;53.218;6.640;2023-03-04T04:13:52;16.50;;;2.08;;
51949;SDS011;37974;53.218;6.640;2023-03-04T04:16:17;17.27;;;1.98;;
51949;SDS011;37974;53.218;6.640;2023-03-04T04:18:43;19.30;;;2.67;;
51949;SDS011;37974;53.218;6.640;2023-03-04T04:21:09;16.60;;;1.83;;
51949;SDS011;37974;53.218;6.640;2023-03-04T04:23:35;13.68;;;1.52;;
51949;SDS011;37974;53.218;6.640;2023-03-04T04:26:00;12.13;;;1.40;;
51949;SDS011;37974;53.218;6.640;2023-03-04T04:28:26;13.93;;;1.45;;
51949;SDS011;37974;53.218;6.640;2023-03-04T04:30:52;14.57;;;2.00;;
51949;SDS011;37974;53.218;6.640;2023-03-04T04:33:17;12.57;;;1.35;;
51949;SDS011;37974;53.218;6.640;2023-03-04T04:35:43;16.50;;;1.50;;
51949;SDS011;37974;53.218;6.640;2023-03-04T04:38:09;9.82;;;1.60;;
51949;SDS011;37974;53.218;6.640;2023-03-04T04:40:35;11.23;;;1.48;;
51949;SDS011;37974;53.218;6.640;2023-03-04T04:43:01;14.15;;;1.60;;
51949;SDS011;37974;53.218;6.640;2023-03-04T04:45:27;15.18;;;2.17;;
51949;SDS011;37974;53.218;6.640;2023-03-04T04:47:53;10.48;;;1.67;;
51949;SDS011;37974;53.218;6.640;2023-03-04T04:50:21;15.32;;;1.52;;
51949;SDS011;37974;53.218;6.640;2023-03-04T04:52:48;15.00;;;1.80;;
51949;SDS011;37974;53.218;6.640;2023-03-04T04:55:14;16.33;;;2.75;;
51949;SDS011;37974;53.218;6.640;2023-03-04T04:57:40;15.63;;;2.00;;
51949;SDS011;37974;53.218;6.640;2023-03-04T05:00:05;17.27;;;3.35;;
51949;SDS011;37974;53.218;6.640;2023-03-04T05:02:34;16.80;;;1.50;;
51949;SDS011;37974;53.218;6.640;2023-03-04T05:05:01;10.15;;;1.45;;
51949;SDS011;37974;53.218;6.640;2023-03-04T05:07:28;20.10;;;2.10;;
51949;SDS011;37974;53.218;6.640;2023-03-04T05:09:54;11.95;;;1.80;;
51949;SDS011;37974;53.218;6.640;2023-03-04T05:12:19;15.77;;;2.00;;
51949;SDS011;37974;53.218;6.640;2023-03-04T05:14:45;18.60;;;2.50;;
51949;SDS011;37974;53.218;6.640;2023-03-04T05:17:11;13.57;;;1.42;;
51949;SDS011;37974;53.218;6.640;2023-03-04T05:19:36;14.20;;;1.50;;
51949;SDS011;37974;53.218;6.640;2023-03-04T05:22:02;16.63;;;2.00;;
51949;SDS011;37974;53.218;6.640;2023-03-04T05:24:28;19.65;;;1.92;;
51949;SDS011;37974;53.218;6.640;2023-03-04T05:26:53;11.95;;;1.60;;
51949;SDS011;37974;53.218;6.640;2023-03-04T05:29:19;16.73;;;1.73;;
51949;SDS011;37974;53.218;6.640;2023-03-04T05:31:45;13.70;;;2.42;;
51949;SDS011;37974;53.218;6.640;2023-03-04T05:34:10;16.70;;;1.95;;
51949;SDS011;37974;53.218;6.640;2023-03-04T05:36:36;16.30;;;2.60;;
51949;SDS011;37974;53.218;6.640;2023-03-04T05:39:02;19.13;;;3.40;;
51949;SDS011;37974;53.218;6.640;2023-03-04T05:41:28;18.00;;;1.80;;
51949;SDS011;37974;53.218;6.640;2023-03-04T05:43:53;15.80;;;2.67;;
51949;SDS011;37974;53.218;6.640;2023-03-04T05:46:20;18.75;;;2.42;;
51949;SDS011;37974;53.218;6.640;2023-03-04T05:48:49;23.48;;;2.42;;
51949;SDS011;37974;53.218;6.640;2023-03-04T05:51:16;18.77;;;2.20;;
51949;SDS011;37974;53.218;6.640;2023-03-04T05:53:42;16.40;;;2.65;;
51949;SDS011;37974;53.218;6.640;2023-03-04T05:56:09;19.13;;;2.53;;
51949;SDS011;37974;53.218;6.640;2023-03-04T05:58:36;16.40;;;2.17;;
51949;SDS011;37974;53.218;6.640;2023-03-04T06:01:02;23.25;;;3.13;;
51949;SDS011;37974;53.218;6.640;2023-03-04T06:03:29;20.15;;;2.50;;
51949;SDS011;37974;53.218;6.640;2023-03-04T06:05:54;14.73;;;1.83;;
51949;SDS011;37974;53.218;6.640;2023-03-04T06:08:21;14.02;;;2.28;;
51949;SDS011;37974;53.218;6.640;2023-03-04T06:10:50;14.27;;;1.80;;
51949;SDS011;37974;53.218;6.640;2023-03-04T06:13:18;20.48;;;2.15;;
51949;SDS011;37974;53.218;6.640;2023-03-04T06:15:45;12.70;;;1.73;;
51949;SDS011;37974;53.218;6.640;2023-03-04T06:18:11;14.50;;;1.75;;
51949;SDS011;37974;53.218;6.640;2023-03-04T06:20:36;17.17;;;2.75;;
51949;SDS011;37974;53.218;6.640;2023-03-04T06:23:02;10.80;;;1.42;;
51949;SDS011;37974;53.218;6.640;2023-03-04T06:25:29;17.75;;;1.75;;
51949;SDS011;37974;53.218;6.640;2023-03-04T06:27:55;16.48;;;1.70;;
51949;SDS011;37974;53.218;6.640;2023-03-04T06:30:21;12.48;;;1.98;;
51949;SDS011;37974;53.218;6.640;2023-03-04T06:32:47;10.77;;;1.58;;
51949;SDS011;37974;53.218;6.640;2023-03-04T06:35:13;18.02;;;1.42;;
51949;SDS011;37974;53.218;6.640;2023-03-04T06:37:40;19.65;;;2.20;;
51949;SDS011;37974;53.218;6.640;2023-03-04T06:40:06;10.32;;;1.55;;
51949;SDS011;37974;53.218;6.640;2023-03-04T06:42:33;16.15;;;1.67;;
51949;SDS011;37974;53.218;6.640;2023-03-04T06:44:59;12.73;;;1.60;;
51949;SDS011;37974;53.218;6.640;2023-03-04T06:47:26;14.30;;;2.00;;
51949;SDS011;37974;53.218;6.640;2023-03-04T06:49:52;14.10;;;2.78;;
51949;SDS011;37974;53.218;6.640;2023-03-04T06:52:18;17.10;;;1.73;;
51949;SDS011;37974;53.218;6.640;2023-03-04T06:54:43;13.77;;;3.13;;
51949;SDS011;37974;53.218;6.640;2023-03-04T06:57:09;19.80;;;2.63;;
51949;SDS011;37974;53.218;6.640;2023-03-04T06:59:35;19.30;;;2.60;;
51949;SDS011;37974;53.218;6.640;2023-03-04T07:02:00;19.80;;;2.97;;
51949;SDS011;37974;53.218;6.640;2023-03-04T07:04:26;20.48;;;2.00;;
51949;SDS011;37974;53.218;6.640;2023-03-04T07:06:52;21.55;;;2.53;;
51949;SDS011;37974;53.218;6.640;2023-03-04T07:09:18;18.67;;;2.05;;
51949;SDS011;37974;53.218;6.640;2023-03-04T07:11:44;15.13;;;2.63;;
51949;SDS011;37974;53.218;6.640;2023-03-04T07:14:09;19.63;;;2.47;;
51949;SDS011;37974;53.218;6.640;2023-03-04T07:16:35;15.52;;;2.38;;
51949;SDS011;37974;53.218;6.640;2023-03-04T07:19:02;18.25;;;1.88;;
51949;SDS011;37974;53.218;6.640;2023-03-04T07:21:28;19.35;;;1.95;;
51949;SDS011;37974;53.218;6.640;2023-03-04T07:23:54;14.55;;;1.70;;
51949;SDS011;37974;53.218;6.640;2023-03-04T07:26:21;23.10;;;2.47;;
51949;SDS011;37974;53.218;6.640;2023-03-04T07:28:46;16.52;;;2.22;;
51949;SDS011;37974;53.218;6.640;2023-03-04T07:31:18;25.02;;;4.28;;
51949;SDS011;37974;53.218;6.640;2023-03-04T07:36:11;17.70;;;2.78;;
51949;SDS011;37974;53.218;6.640;2023-03-04T07:38:41;24.30;;;3.50;;
51949;SDS011;37974;53.218;6.640;2023-03-04T07:41:08;25.90;;;3.25;;
51949;SDS011;37974;53.218;6.640;2023-03-04T07:43:34;22.90;;;3.70;;
51949;SDS011;37974;53.218;6.640;2023-03-04T07:46:00;21.13;;;2.88;;
51949;SDS011;37974;53.218;6.640;2023-03-04T07:48:26;31.45;;;4.70;;
51949;SDS011;37974;53.218;6.640;2023-03-04T07:51:06;29.20;;;4.10;;
51949;SDS011;37974;53.218;6.640;2023-03-04T07:53:34;25.67;;;4.63;;
51949;SDS011;37974;53.218;6.640;2023-03-04T07:56:01;21.60;;;3.45;;
51949;SDS011;37974;53.218;6.640;2023-03-04T07:58:27;24.52;;;3.90;;
51949;SDS011;37974;53.218;6.640;2023-03-04T08:00:53;29.80;;;4.25;;
51949;SDS011;37974;53.218;6.640;2023-03-04T08:03:21;33.92;;;4.68;;
51949;SDS011;37974;53.218;6.640;2023-03-04T08:05:47;31.70;;;5.22;;
51949;SDS011;37974;53.218;6.640;2023-03-04T08:08:13;38.40;;;4.32;;
51949;SDS011;37974;53.218;6.640;2023-03-04T08:10:39;31.48;;;4.03;;
51949;SDS011;37974;53.218;6.640;2023-03-04T08:13:05;29.70;;;4.10;;
51949;SDS011;37974;53.218;6.640;2023-03-04T08:15:31;38.40;;;5.88;;
51949;SDS011;37974;53.218;6.640;2023-03-04T08:17:59;41.08;;;5.53;;
51949;SDS011;37974;53.218;6.640;2023-03-04T08:20:25;31.40;;;4.65;;
51949;SDS011;37974;53.218;6.640;2023-03-04T08:22:52;31.30;;;5.05;;
51949;SDS011;37974;53.218;6.640;2023-03-04T08:25:18;34.47;;;4.57;;
51949;SDS011;37974;53.218;6.640;2023-03-04T08:27:44;39.88;;;6.00;;
51949;SDS011;37974;53.218;6.640;2023-03-04T08:30:10;39.08;;;4.45;;
51949;SDS011;37974;53.218;6.640;2023-03-04T08:32:36;27.55;;;3.88;;
51949;SDS011;37974;53.218;6.640;2023-03-04T08:35:01;21.00;;;4.03;;
51949;SDS011;37974;53.218;6.640;2023-03-04T08:37:28;30.50;;;4.43;;
51949;SDS011;37974;53.218;6.640;2023-03-04T08:39:54;34.00;;;5.15;;
51949;SDS011;37974;53.218;6.640;2023-03-04T08:42:20;26.92;;;4.35;;
51949;SDS011;37974;53.218;6.640;2023-03-04T08:44:45;31.55;;;4.57;;
51949;SDS011;37974;53.218;6.640;2023-03-04T08:47:11;31.70;;;4.30;;
51949;SDS011;37974;53.218;6.640;2023-03-04T08:49:37;25.48;;;3.65;;
51949;SDS011;37974;53.218;6.640;2023-03-04T08:52:03;29.52;;;4.43;;
51949;SDS011;37974;53.218;6.640;2023-03-04T08:54:29;37.33;;;4.07;;
51949;SDS011;37974;53.218;6.640;2023-03-04T08:56:54;25.63;;;3.55;;
51949;SDS011;37974;53.218;6.640;2023-03-04T08:59:20;26.65;;;4.00;;
51949;SDS011;37974;53.218;6.640;2023-03-04T09:01:46;25.33;;;3.95;;
51949;SDS011;37974;53.218;6.640;2023-03-04T09:04:12;30.60;;;4.30;;
51949;SDS011;37974;53.218;6.640;2023-03-04T09:06:37;22.73;;;3.28;;
51949;SDS011;37974;53.218;6.640;2023-03-04T09:09:03;25.17;;;3.70;;
51949;SDS011;37974;53.218;6.640;2023-03-04T09:11:29;21.65;;;3.58;;
51949;SDS011;37974;53.218;6.640;2023-03-04T09:13:55;19.02;;;3.25;;
51949;SDS011;37974;53.218;6.640;2023-03-04T09:16:21;17.63;;;2.38;;
51949;SDS011;37974;53.218;6.640;2023-03-04T09:18:48;21.52;;;2.90;;
51949;SDS011;37974;53.218;6.640;2023-03-04T09:21:14;17.58;;;2.63;;
51949;SDS011;37974;53.218;6.640;2023-03-04T09:23:40;19.00;;;2.33;;
51949;SDS011;37974;53.218;6.640;2023-03-04T09:26:19;13.82;;;2.20;;
51949;SDS011;37974;53.218;6.640;2023-03-04T09:28:49;12.23;;;2.03;;
51949;SDS011;37974;53.218;6.640;2023-03-04T09:31:17;14.60;;;2.00;;
51949;SDS011;37974;53.218;6.640;2023-03-04T09:33:42;11.90;;;1.42;;
51949;SDS011;37974;53.218;6.640;2023-03-04T09:36:10;11.52;;;1.48;;
51949;SDS011;37974;53.218;6.640;2023-03-04T09:38:37;12.55;;;1.42;;
51949;SDS011;37974;53.218;6.640;2023-03-04T09:41:04;13.50;;;1.60;;
51949;SDS011;37974;53.218;6.640;2023-03-04T09:43:33;12.07;;;1.70;;
51949;SDS011;37974;53.218;6.640;2023-03-04T09:46:02;10.48;;;1.58;;
51949;SDS011;37974;53.218;6.640;2023-03-04T09:48:35;13.40;;;1.80;;
51949;SDS011;37974;53.218;6.640;2023-03-04T09:51:11;10.65;;;1.85;;
51949;SDS011;37974;53.218;6.640;2023-03-04T09:53:47;16.60;;;2.25;;
51949;SDS011;37974;53.218;6.640;2023-03-04T09:56:27;20.67;;;2.15;;
51949;SDS011;37974;53.218;6.640;2023-03-04T10:01:21;14.05;;;2.20;;
51949;SDS011;37974;53.218;6.640;2023-03-04T10:03:53;14.55;;;2.03;;
51949;SDS011;37974;53.218;6.640;2023-03-04T10:06:24;25.27;;;2.92;;
51949;SDS011;37974;53.218;6.640;2023-03-04T10:08:54;24.33;;;3.25;;
51949;SDS011;37974;53.218;6.640;2023-03-04T10:16:42;24.00;;;3.97;;
51949;SDS011;37974;53.218;6.640;2023-03-04T10:19:22;16.80;;;3.63;;
51949;SDS011;37974;53.218;6.640;2023-03-04T10:22:14;27.42;;;4.10;;
51949;SDS011;37974;53.218;6.640;2023-03-04T10:24:45;28.13;;;4.18;;
51949;SDS011;37974;53.218;6.640;2023-03-04T10:27:12;22.92;;;3.53;;
51949;SDS011;37974;53.218;6.640;2023-03-04T10:29:43;33.78;;;4.03;;
51949;SDS011;37974;53.218;6.640;2023-03-04T10:32:11;25.08;;;3.65;;
51949;SDS011;37974;53.218;6.640;2023-03-04T10:34:40;15.50;;;2.65;;
51949;SDS011;37974;53.218;6.640;2023-03-04T10:37:06;21.50;;;3.60;;
51949;SDS011;37974;53.218;6.640;2023-03-04T10:39:43;20.27;;;2.83;;
51949;SDS011;37974;53.218;6.640;2023-03-04T10:44:41;21.80;;;3.15;;
51949;SDS011;37974;53.218;6.640;2023-03-04T10:47:15;19.42;;;3.00;;
51949;SDS011;37974;53.218;6.640;2023-03-04T10:49:49;20.50;;;3.50;;
51949;SDS011;37974;53.218;6.640;2023-03-04T10:54:51;19.60;;;3.38;;
51949;SDS011;37974;53.218;6.640;2023-03-04T10:57:27;21.35;;;2.72;;
51949;SDS011;37974;53.218;6.640;2023-03-04T11:02:41;25.23;;;3.78;;
51949;SDS011;37974;53.218;6.640;2023-03-04T11:07:38;20.42;;;3.33;;
51949;SDS011;37974;53.218;6.640;2023-03-04T11:10:07;20.90;;;3.58;;
51949;SDS011;37974;53.218;6.640;2023-03-04T11:12:35;18.63;;;3.28;;
51949;SDS011;37974;53.218;6.640;2023-03-04T11:15:01;20.60;;;3.17;;
51949;SDS011;37974;53.218;6.640;2023-03-04T11:17:28;23.23;;;3.03;;
51949;SDS011;37974;53.218;6.640;2023-03-04T11:20:16;11.80;;;2.70;;
51949;SDS011;37974;53.218;6.640;2023-03-04T11:22:43;17.63;;;2.85;;
51949;SDS011;37974;53.218;6.640;2023-03-04T11:25:20;17.10;;;2.75;;
51949;SDS011;37974;53.218;6.640;2023-03-04T11:27:52;14.93;;;2.88;;
51949;SDS011;37974;53.218;6.640;2023-03-04T11:35:50;21.63;;;3.22;;
51949;SDS011;37974;53.218;6.640;2023-03-04T11:38:41;15.05;;;2.70;;
51949;SDS011;37974;53.218;6.640;2023-03-04T11:43:45;22.73;;;3.35;;
51949;SDS011;37974;53.218;6.640;2023-03-04T11:51:42;20.40;;;3.55;;
51949;SDS011;37974;53.218;6.640;2023-03-04T11:57:06;18.30;;;2.38;;
51949;SDS011;37974;53.218;6.640;2023-03-04T11:59:51;17.33;;;3.08;;
51949;SDS011;37974;53.218;6.640;2023-03-04T12:02:43;12.30;;;2.53;;
51949;SDS011;37974;53.218;6.640;2023-03-04T12:05:25;21.48;;;2.83;;
51949;SDS011;37974;53.218;6.640;2023-03-04T12:08:06;29.98;;;3.28;;
51949;SDS011;37974;53.218;6.640;2023-03-04T12:10:36;23.73;;;3.22;;
51949;SDS011;37974;53.218;6.640;2023-03-04T12:31:41;21.63;;;3.25;;
51949;SDS011;37974;53.218;6.640;2023-03-04T12:42:26;17.02;;;2.92;;
51949;SDS011;37974;53.218;6.640;2023-03-04T12:44:57;24.33;;;3.28;;
51949;SDS011;37974;53.218;6.640;2023-03-04T12:50:21;21.02;;;3.63;;
51949;SDS011;37974;53.218;6.640;2023-03-04T12:55:42;21.13;;;4.55;;
51949;SDS011;37974;53.218;6.640;2023-03-04T12:58:15;21.67;;;3.95;;
51949;SDS011;37974;53.218;6.640;2023-03-04T13:00:48;25.17;;;3.17;;
51949;SDS011;37974;53.218;6.640;2023-03-04T13:03:26;13.30;;;2.42;;
51949;SDS011;37974;53.218;6.640;2023-03-04T13:11:39;12.80;;;1.98;;
51949;SDS011;37974;53.218;6.640;2023-03-04T13:16:44;16.05;;;2.67;;
51949;SDS011;37974;53.218;6.640;2023-03-04T13:24:53;16.88;;;2.50;;
51949;SDS011;37974;53.218;6.640;2023-03-04T13:30:38;16.40;;;2.75;;
51949;SDS011;37974;53.218;6.640;2023-03-04T13:35:59;21.70;;;2.80;;
51949;SDS011;37974;53.218;6.640;2023-03-04T13:41:06;15.18;;;3.50;;
51949;SDS011;37974;53.218;6.640;2023-03-04T13:43:54;18.67;;;3.00;;
51949;SDS011;37974;53.218;6.640;2023-03-04T13:51:15;22.50;;;2.95;;
51949;SDS011;37974;53.218;6.640;2023-03-04T13:59:01;19.02;;;2.88;;
51949;SDS011;37974;53.218;6.640;2023-03-04T14:01:29;20.60;;;2.90;;
51949;SDS011;37974;53.218;6.640;2023-03-04T14:03:57;28.95;;;3.50;;
51949;SDS011;37974;53.218;6.640;2023-03-04T14:06:25;17.40;;;3.35;;
51949;SDS011;37974;53.218;6.640;2023-03-04T14:08:54;23.77;;;3.58;;
51949;SDS011;37974;53.218;6.640;2023-03-04T14:13:48;18.98;;;2.55;;
51949;SDS011;37974;53.218;6.640;2023-03-04T14:16:19;16.90;;;2.20;;
51949;SDS011;37974;53.218;6.640;2023-03-04T14:18:55;12.00;;;2.60;;
51949;SDS011;37974;53.218;6.640;2023-03-04T14:21:22;22.88;;;3.03;;
51949;SDS011;37974;53.218;6.640;2023-03-04T14:23:58;17.88;;;1.85;;
51949;SDS011;37974;53.218;6.640;2023-03-04T14:26:25;22.60;;;2.95;;
51949;SDS011;37974;53.218;6.640;2023-03-04T14:28:51;12.73;;;2.05;;
51949;SDS011;37974;53.218;6.640;2023-03-04T14:31:22;18.55;;;2.83;;
51949;SDS011;37974;53.218;6.640;2023-03-04T14:33:51;13.10;;;2.72;;
51949;SDS011;37974;53.218;6.640;2023-03-04T14:36:23;19.23;;;2.97;;
51949;SDS011;37974;53.218;6.640;2023-03-04T14:38:52;17.08;;;2.80;;
51949;SDS011;37974;53.218;6.640;2023-03-04T14:41:25;22.50;;;4.53;;
51949;SDS011;37974;53.218;6.640;2023-03-04T14:46:25;28.38;;;3.28;;
51949;SDS011;37974;53.218;6.640;2023-03-04T14:48:54;21.00;;;4.03;;
51949;SDS011;37974;53.218;6.640;2023-03-04T14:51:31;21.25;;;3.75;;
51949;SDS011;37974;53.218;6.640;2023-03-04T14:54:01;25.38;;;3.38;;
51949;SDS011;37974;53.218;6.640;2023-03-04T14:56:28;22.77;;;3.38;;
51949;SDS011;37974;53.218;6.640;2023-03-04T14:58:57;20.48;;;3.33;;
51949;SDS011;37974;53.218;6.640;2023-03-04T15:01:38;21.05;;;3.63;;
51949;SDS011;37974;53.218;6.640;2023-03-04T15:04:40;20.25;;;3.13;;
51949;SDS011;37974;53.218;6.640;2023-03-04T15:07:11;14.38;;;2.72;;
51949;SDS011;37974;53.218;6.640;2023-03-04T15:09:41;16.67;;;2.17;;
51949;SDS011;37974;53.218;6.640;2023-03-04T15:12:20;16.95;;;2.38;;
51949;SDS011;37974;53.218;6.640;2023-03-04T15:14:52;14.93;;;2.50;;
51949;SDS011;37974;53.218;6.640;2023-03-04T15:19:59;24.67;;;3.13;;
51949;SDS011;37974;53.218;6.640;2023-03-04T15:22:26;23.48;;;3.03;;
51949;SDS011;37974;53.218;6.640;2023-03-04T15:24:52;20.05;;;3.13;;
51949;SDS011;37974;53.218;6.640;2023-03-04T15:27:18;17.98;;;2.92;;
51949;SDS011;37974;53.218;6.640;2023-03-04T15:29:48;19.17;;;3.72;;
51949;SDS011;37974;53.218;6.640;2023-03-04T15:32:15;14.02;;;2.58;;
51949;SDS011;37974;53.218;6.640;2023-03-04T15:34:41;16.58;;;2.63;;
51949;SDS011;37974;53.218;6.640;2023-03-04T15:37:07;17.17;;;2.25;;
51949;SDS011;37974;53.218;6.640;2023-03-04T15:39:41;15.05;;;2.20;;
51949;SDS011;37974;53.218;6.640;2023-03-04T15:42:07;14.80;;;2.13;;
51949;SDS011;37974;53.218;6.640;2023-03-04T15:44:37;17.02;;;2.67;;
51949;SDS011;37974;53.218;6.640;2023-03-04T15:47:03;15.55;;;2.50;;
51949;SDS011;37974;53.218;6.640;2023-03-04T15:49:33;23.17;;;2.55;;
51949;SDS011;37974;53.218;6.640;2023-03-04T15:51:59;15.30;;;2.42;;
51949;SDS011;37974;53.218;6.640;2023-03-04T15:54:28;18.80;;;2.55;;
51949;SDS011;37974;53.218;6.640;2023-03-04T15:56:54;20.40;;;2.70;;
51949;SDS011;37974;53.218;6.640;2023-03-04T15:59:22;12.85;;;1.70;;
51949;SDS011;37974;53.218;6.640;2023-03-04T16:01:48;14.23;;;2.13;;
51949;SDS011;37974;53.218;6.640;2023-03-04T16:04:14;11.35;;;1.98;;
51949;SDS011;37974;53.218;6.640;2023-03-04T16:06:41;13.32;;;1.77;;
51949;SDS011;37974;53.218;6.640;2023-03-04T16:09:11;16.30;;;2.30;;
51949;SDS011;37974;53.218;6.640;2023-03-04T16:11:41;13.30;;;2.35;;
51949;SDS011;37974;53.218;6.640;2023-03-04T16:14:11;15.98;;;2.25;;
51949;SDS011;37974;53.218;6.640;2023-03-04T16:16:38;18.65;;;2.45;;
51949;SDS011;37974;53.218;6.640;2023-03-04T16:19:05;23.10;;;3.70;;
51949;SDS011;37974;53.218;6.640;2023-03-04T16:21:31;12.48;;;2.55;;
51949;SDS011;37974;53.218;6.640;2023-03-04T16:23:57;19.95;;;3.30;;
51949;SDS011;37974;53.218;6.640;2023-03-04T16:26:24;16.98;;;4.07;;
51949;SDS011;37974;53.218;6.640;2023-03-04T16:28:52;21.85;;;4.07;;
51949;SDS011;37974;53.218;6.640;2023-03-04T16:31:18;23.90;;;3.88;;
51949;SDS011;37974;53.218;6.640;2023-03-04T16:33:44;14.63;;;2.35;;